Time;durP1;ratioP1;P1;durP2;ratioP2;P2;SDS_P1;SDS_P2;PMS_P1;PMS_P2;Temp;Humidity;BMP_temperature;BMP_pressure;BME280_temperature;BME280_humidity;BME280_pressure;Samples;Min_cycle;Max_cycle;Signal;HPM_P1;HPM_P2
2023/08/22 00:00:23;;;;;;;0.00;0.00;;;;;;;14.58;100.00;100874.66;4996523;28;20033;-78
2023/08/22 00:02:48;;;;;;;0.00;0.00;;;;;;;14.61;100.00;100879.59;5045459;28;20029;-78
2023/08/22 00:05:14;;;;;;;0.00;0.00;;;;;;;14.61;100.00;100885.09;5007072;28;20040;-78
2023/08/22 00:07:41;;;;;;;0.00;0.00;;;;;;;14.61;100.00;100883.19;5033928;28;20219;-77
2023/08/22 00:10:10;;;;;;;0.00;0.00;;;;;;;14.63;100.00;100875.47;5018572;28;20025;-78
2023/08/22 00:12:35;;;;;;;0.00;0.00;;;;;;;14.85;100.00;100882.53;5022065;28;20033;-77
2023/08/22 00:15:01;;;;;;;0.00;0.00;;;;;;;15.11;100.00;100893.38;5029160;28;20029;-76
2023/08/22 00:17:26;;;;;;;0.00;0.00;;;;;;;15.28;100.00;100884.75;5018772;28;20040;-76
2023/08/22 00:19:52;;;;;;;0.00;0.00;;;;;;;15.40;99.16;100879.69;5012849;28;20029;-76
2023/08/22 00:22:18;;;;;;;0.00;0.00;;;;;;;15.48;99.19;100870.81;5013574;28;20052;-76
2023/08/22 00:24:43;;;;;;;0.00;0.00;;;;;;;15.42;98.64;100860.94;5018183;28;20067;-77
2023/08/22 00:27:11;;;;;;;0.00;0.00;;;;;;;15.53;98.84;100876.25;5019741;28;20051;-77
2023/08/22 00:29:37;;;;;;;0.00;0.00;;;;;;;15.62;98.82;100881.16;5005094;28;20591;-76
2023/08/22 00:32:03;;;;;;;0.00;0.00;;;;;;;15.60;98.70;100862.16;4992488;28;20033;-78
2023/08/22 00:34:28;;;;;;;0.00;0.00;;;;;;;15.66;98.46;100868.47;5039459;28;20036;-78
2023/08/22 00:36:53;;;;;;;0.00;0.00;;;;;;;15.53;98.54;100840.44;5002048;28;20032;-77
2023/08/22 00:39:19;;;;;;;0.00;0.00;;;;;;;15.66;98.98;100849.16;5025218;28;20037;-78
2023/08/22 00:41:45;;;;;;;0.00;0.00;;;;;;;15.70;98.94;100862.06;5005827;28;20057;-76
2023/08/22 00:44:18;;;;;;;0.00;0.00;;;;;;;15.73;99.12;100860.66;4994289;28;20025;-77
2023/08/22 00:46:44;;;;;;;0.00;0.00;;;;;;;15.73;99.18;100849.66;4997748;28;20106;-77
2023/08/22 00:49:09;;;;;;;0.00;0.00;;;;;;;15.76;98.95;100854.56;5006808;28;20128;-76
2023/08/22 00:51:41;;;;;;;0.00;0.00;;;;;;;15.73;99.05;100849.66;5030824;28;20025;-77
2023/08/22 00:54:07;;;;;;;0.00;0.00;;;;;;;15.75;99.06;100857.63;5024654;28;20037;-77
2023/08/22 00:56:34;;;;;;;0.00;0.00;;;;;;;15.72;99.21;100842.47;4990563;28;20025;-78
2023/08/22 00:59:02;;;;;;;0.00;0.00;;;;;;;15.76;99.16;100838.03;5008663;28;20025;-78
2023/08/22 01:01:28;;;;;;;0.00;0.00;;;;;;;15.80;99.44;100839.13;5019366;28;20392;-78
2023/08/22 01:03:53;;;;;;;0.00;0.00;;;;;;;15.81;99.64;100840.78;5047674;28;20032;-78
2023/08/22 01:06:39;;;;;;;0.00;0.00;;;;;;;15.82;99.12;100847.91;4997533;28;20036;-78
2023/08/22 01:09:30;;;;;;;0.00;0.00;;;;;;;15.86;99.59;100842.66;5024792;28;20033;-78
2023/08/22 01:12:34;;;;;;;0.00;0.00;;;;;;;15.84;99.85;100844.88;5025222;28;20021;-76
2023/08/22 01:15:30;;;;;;;0.00;0.00;;;;;;;15.84;99.81;100834.69;5016493;28;20479;-76
2023/08/22 01:18:03;;;;;;;0.00;0.00;;;;;;;15.87;99.30;100838.78;5002563;28;20461;-77
2023/08/22 01:20:29;;;;;;;0.00;0.00;;;;;;;15.92;99.64;100833.22;5016818;28;20048;-77
2023/08/22 01:22:54;;;;;;;0.00;0.00;;;;;;;15.97;99.30;100843.38;5028635;28;20567;-77
2023/08/22 01:25:20;;;;;;;0.00;0.00;;;;;;;15.96;99.27;100830.69;5014820;28;20040;-77
2023/08/22 01:27:50;;;;;;;0.00;0.00;;;;;;;16.04;99.61;100838.31;5011140;28;20063;-76
2023/08/22 01:30:25;;;;;;;0.00;0.00;;;;;;;16.08;98.90;100828.34;5016713;28;20581;-75
2023/08/22 01:32:52;;;;;;;0.00;0.00;;;;;;;16.11;98.93;100835.22;5029583;28;20029;-75
2023/08/22 01:35:23;;;;;;;0.00;0.00;;;;;;;16.09;98.76;100830.00;5024005;28;20036;-76
2023/08/22 01:37:51;;;;;;;0.00;0.00;;;;;;;16.18;98.36;100836.50;5036877;28;20033;-77
2023/08/22 01:40:17;;;;;;;0.00;0.00;;;;;;;16.19;98.35;100835.41;5017410;28;20040;-75
2023/08/22 01:42:42;;;;;;;0.00;0.00;;;;;;;16.20;98.25;100826.00;4991403;28;20033;-78
2023/08/22 01:45:08;;;;;;;0.00;0.00;;;;;;;16.21;98.27;100827.63;5038503;28;20020;-78
2023/08/22 01:47:35;;;;;;;0.00;0.00;;;;;;;16.26;98.03;100823.19;5023415;28;20025;-79
2023/08/22 01:50:10;;;;;;;0.00;0.00;;;;;;;16.29;98.04;100828.09;5008955;28;20396;-76
2023/08/22 01:52:35;;;;;;;0.00;0.00;;;;;;;16.30;98.24;100829.75;5014753;28;20064;-76
2023/08/22 01:55:01;;;;;;;0.00;0.00;;;;;;;16.29;97.33;100826.16;5037001;28;20033;-76
2023/08/22 01:57:26;;;;;;;0.00;0.00;;;;;;;16.22;97.54;100811.91;5006331;28;20510;-74
2023/08/22 01:59:51;;;;;;;0.00;0.00;;;;;;;16.25;98.00;100821.53;5016816;28;20028;-75
2023/08/22 02:02:17;;;;;;;0.00;0.00;;;;;;;16.25;97.48;100827.84;5010359;28;20380;-76
2023/08/22 02:04:42;;;;;;;0.00;0.00;;;;;;;16.29;97.80;100828.91;4991652;28;20025;-76
2023/08/22 02:07:08;;;;;;;0.00;0.00;;;;;;;16.33;97.67;100829.16;5017237;28;20099;-76
2023/08/22 02:09:33;;;;;;;0.00;0.00;;;;;;;16.37;97.23;100830.22;4994391;28;20136;-76
2023/08/22 02:11:59;;;;;;;0.00;0.00;;;;;;;16.35;97.06;100818.66;5008655;28;20033;-78
2023/08/22 02:14:24;;;;;;;0.00;0.00;;;;;;;16.37;96.93;100817.25;5026473;28;20407;-77
2023/08/22 02:16:49;;;;;;;0.00;0.00;;;;;;;16.35;97.21;100804.84;4987855;28;20032;-76
2023/08/22 02:19:16;;;;;;;0.00;0.00;;;;;;;16.37;96.94;100802.63;5008096;28;20025;-75
2023/08/22 02:21:42;;;;;;;0.00;0.00;;;;;;;16.42;97.05;100805.31;5005785;28;20029;-76
2023/08/22 02:24:07;;;;;;;0.00;0.00;;;;;;;16.42;97.40;100804.50;5001791;28;20506;-75
2023/08/22 02:26:33;;;;;;;0.00;0.00;;;;;;;16.43;97.19;100812.47;5014860;28;20079;-75
2023/08/22 02:28:59;;;;;;;0.00;0.00;;;;;;;16.40;97.21;100802.03;5025459;28;20057;-76
2023/08/22 02:31:25;;;;;;;0.00;0.00;;;;;;;16.41;97.11;100809.19;5007409;28;20104;-76
2023/08/22 02:33:50;;;;;;;0.00;0.00;;;;;;;16.40;97.10;100813.06;5024176;28;20017;-75
2023/08/22 02:36:15;;;;;;;0.00;0.00;;;;;;;16.40;97.11;100818.59;5037616;28;20033;-75
2023/08/22 02:38:41;;;;;;;0.00;0.00;;;;;;;16.41;97.25;100814.69;5001568;28;20040;-77
2023/08/22 02:41:06;;;;;;;0.00;0.00;;;;;;;16.40;97.21;100813.06;5011382;28;20041;-76
2023/08/22 02:43:32;;;;;;;0.00;0.00;;;;;;;16.42;97.86;100813.59;5008209;28;20029;-77
2023/08/22 02:45:57;;;;;;;0.00;0.00;;;;;;;16.40;97.79;100802.03;5002710;28;20029;-76
2023/08/22 02:48:23;;;;;;;0.00;0.00;;;;;;;16.45;97.66;100815.75;5026129;28;20418;-77
2023/08/22 02:50:50;;;;;;;0.00;0.00;;;;;;;16.45;97.48;100806.66;4999087;28;20025;-76
2023/08/22 02:53:15;;;;;;;0.00;0.00;;;;;;;16.43;97.56;100806.97;5011985;28;20083;-74
2023/08/22 02:55:41;;;;;;;0.00;0.00;;;;;;;16.42;97.67;100805.31;5014816;28;20032;-77
2023/08/22 02:58:07;;;;;;;0.00;0.00;;;;;;;16.41;97.87;100809.19;5014159;28;20033;-76
2023/08/22 03:00:37;;;;;;;0.00;0.00;;;;;;;16.33;98.04;100807.09;5031185;28;20032;-75
2023/08/22 03:03:03;;;;;;;0.00;0.00;;;;;;;16.34;98.06;100809.56;5004048;28;20112;-76
2023/08/22 03:05:29;;;;;;;0.00;0.00;;;;;;;16.39;97.77;100811.41;4994539;28;20105;-77
2023/08/22 03:07:54;;;;;;;0.00;0.00;;;;;;;16.32;98.37;100795.22;5013712;28;20395;-76
2023/08/22 03:10:20;;;;;;;0.00;0.00;;;;;;;16.38;98.08;100809.78;5011736;28;20029;-77
2023/08/22 03:12:47;;;;;;;0.00;0.00;;;;;;;16.29;98.59;100800.50;5019610;28;20025;-76
2023/08/22 03:15:12;;;;;;;0.00;0.00;;;;;;;16.29;98.90;100797.75;4985925;28;20051;-76
2023/08/22 03:17:38;;;;;;;0.00;0.00;;;;;;;16.30;99.15;100804.94;5016752;28;20480;-75
2023/08/22 03:20:05;;;;;;;0.00;0.00;;;;;;;16.22;99.22;100800.84;5030704;28;20773;-76
2023/08/22 03:22:30;;;;;;;0.00;0.00;;;;;;;16.19;99.43;100801.44;5000268;28;20133;-76
2023/08/22 03:24:56;;;;;;;0.00;0.00;;;;;;;16.15;100.00;100801.22;5003773;28;20112;-77
2023/08/22 03:27:21;;;;;;;0.00;0.00;;;;;;;16.11;100.00;100800.19;5004974;28;20025;-76
2023/08/22 03:29:46;;;;;;;0.00;0.00;;;;;;;16.05;100.00;100790.31;5012057;28;20037;-77
2023/08/22 03:32:12;;;;;;;0.00;0.00;;;;;;;16.00;100.00;100791.22;4983261;28;20107;-77
2023/08/22 03:34:37;;;;;;;0.00;0.00;;;;;;;15.77;100.00;100776.28;5018596;28;20029;-77
2023/08/22 03:37:05;;;;;;;0.00;0.00;;;;;;;15.81;100.00;100796.66;5010711;28;20079;-76
2023/08/22 03:39:31;;;;;;;0.00;0.00;;;;;;;15.75;100.00;100797.78;5014806;28;20052;-77
2023/08/22 03:41:56;;;;;;;0.00;0.00;;;;;;;15.69;100.00;100805.28;5015049;28;20567;-77
2023/08/22 03:44:22;;;;;;;0.00;0.00;;;;;;;15.62;100.00;100787.44;5000109;28;20044;-76
2023/08/22 03:46:47;;;;;;;0.00;0.00;;;;;;;15.62;100.00;100792.97;4996735;28;20033;-76
2023/08/22 03:49:15;;;;;;;0.00;0.00;;;;;;;15.56;100.00;100788.63;5018752;28;20570;-78
2023/08/22 03:51:43;;;;;;;0.00;0.00;;;;;;;15.49;100.00;100781.50;5020226;28;20078;-77
2023/08/22 03:54:08;;;;;;;0.00;0.00;;;;;;;15.46;100.00;100784.00;5003845;28;20029;-76
2023/08/22 03:56:34;;;;;;;0.00;0.00;;;;;;;15.44;100.00;100781.56;5026760;28;20102;-76
2023/08/22 03:59:00;;;;;;;0.00;0.00;;;;;;;15.45;100.00;100787.88;5035134;28;20028;-77
2023/08/22 04:01:25;;;;;;;0.00;0.00;;;;;;;15.39;100.00;100775.25;5009069;28;20055;-76
2023/08/22 04:03:51;;;;;;;0.00;0.00;;;;;;;15.40;100.00;100774.97;5032778;28;20456;-75
2023/08/22 04:06:16;;;;;;;0.00;0.00;;;;;;;15.44;100.00;100780.75;4984886;28;20039;-77
2023/08/22 04:08:42;;;;;;;0.00;0.00;;;;;;;15.38;100.00;100779.16;5025113;28;20039;-79
2023/08/22 04:11:07;;;;;;;0.00;0.00;;;;;;;15.42;100.00;100788.47;5028047;28;20849;-76
2023/08/22 04:13:33;;;;;;;0.00;0.00;;;;;;;15.42;100.00;100797.56;5004019;28;20053;-77
2023/08/22 04:15:58;;;;;;;0.00;0.00;;;;;;;15.48;100.00;100796.41;4990662;28;20039;-76
2023/08/22 04:18:23;;;;;;;0.00;0.00;;;;;;;15.57;100.00;100795.78;4981390;28;20476;-77
2023/08/22 04:20:49;;;;;;;0.00;0.00;;;;;;;15.63;100.00;100794.59;5004413;28;20017;-75
2023/08/22 04:23:14;;;;;;;0.00;0.00;;;;;;;15.65;100.00;100792.38;5028805;28;20049;-74
2023/08/22 04:25:40;;;;;;;0.00;0.00;;;;;;;15.75;100.00;100800.53;5009070;28;20514;-75
2023/08/22 04:28:05;;;;;;;0.00;0.00;;;;;;;15.80;100.00;100803.28;4990667;28;20468;-76
2023/08/22 04:30:31;;;;;;;0.00;0.00;;;;;;;15.82;100.00;100803.81;5040020;28;20391;-77
2023/08/22 04:32:56;;;;;;;0.00;0.00;;;;;;;15.80;100.00;100800.53;5022861;28;20471;-76
2023/08/22 04:35:22;;;;;;;0.00;0.00;;;;;;;15.87;100.00;100817.56;5041522;28;20029;-76
2023/08/22 04:37:47;;;;;;;0.00;0.00;;;;;;;15.84;100.00;100807.09;5009400;28;20033;-77
2023/08/22 04:40:13;;;;;;;0.00;0.00;;;;;;;15.79;100.00;100804.38;5042730;28;20333;-76
2023/08/22 04:42:38;;;;;;;0.00;0.00;;;;;;;15.67;100.00;100784.66;4998709;28;20510;-75
2023/08/22 04:45:04;;;;;;;0.00;0.00;;;;;;;15.68;100.00;100794.53;4999577;28;20067;-76
2023/08/22 04:47:29;;;;;;;0.00;0.00;;;;;;;15.63;100.00;100798.19;5019685;28;20116;-76
2023/08/22 04:49:55;;;;;;;0.00;0.00;;;;;;;15.59;100.00;100793.53;5022363;28;20078;-75
2023/08/22 04:52:20;;;;;;;0.00;0.00;;;;;;;15.56;100.00;100799.63;5029402;28;20475;-76
2023/08/22 04:54:46;;;;;;;0.00;0.00;;;;;;;15.57;100.00;100802.09;4999829;28;20191;-76
2023/08/22 04:57:11;;;;;;;0.00;0.00;;;;;;;15.53;100.00;100796.34;5007435;28;20025;-76
2023/08/22 04:59:37;;;;;;;0.00;0.00;;;;;;;15.51;100.00;100798.56;5029119;28;20446;-76
2023/08/22 05:02:02;;;;;;;0.00;0.00;;;;;;;15.49;100.00;100802.72;5001668;28;20047;-77
2023/08/22 05:04:28;;;;;;;0.00;0.00;;;;;;;15.46;100.00;100806.91;5026974;28;20429;-77
2023/08/22 05:06:53;;;;;;;0.00;0.00;;;;;;;15.44;100.00;100802.78;5001678;28;20021;-76
2023/08/22 05:09:18;;;;;;;0.00;0.00;;;;;;;15.46;100.00;100801.38;5016344;28;20075;-76
2023/08/22 05:11:44;;;;;;;0.00;0.00;;;;;;;15.42;100.00;100792.06;5013837;28;20033;-76
2023/08/22 05:14:11;;;;;;;0.00;0.00;;;;;;;15.47;100.00;100804.97;5021462;28;20108;-75
2023/08/22 05:16:38;;;;;;;0.00;0.00;;;;;;;15.44;100.00;100803.59;5033618;28;20040;-75
2023/08/22 05:19:03;;;;;;;0.00;0.00;;;;;;;15.43;100.00;100799.19;5029481;28;20025;-75
2023/08/22 05:21:29;;;;;;;0.00;0.00;;;;;;;15.48;100.00;100806.59;5002282;28;20029;-76
2023/08/22 05:23:54;;;;;;;0.00;0.00;;;;;;;15.50;100.00;100802.44;5015254;28;20475;-75
2023/08/22 05:26:20;;;;;;;0.00;0.00;;;;;;;15.50;100.00;100802.44;5027596;28;20025;-77
2023/08/22 05:28:45;;;;;;;0.00;0.00;;;;;;;15.51;100.00;100804.09;5005477;28;20063;-76
2023/08/22 05:31:22;;;;;;;0.00;0.00;;;;;;;15.55;100.00;100809.84;5009440;28;20055;-76
2023/08/22 05:33:47;;;;;;;0.00;0.00;;;;;;;15.53;100.00;100804.59;5012784;28;20025;-77
2023/08/22 05:36:13;;;;;;;0.00;0.00;;;;;;;15.57;100.00;100801.28;5010988;28;20036;-76
2023/08/22 05:38:38;;;;;;;0.00;0.00;;;;;;;15.57;100.00;100806.81;5013497;28;20055;-77
2023/08/22 05:41:04;;;;;;;0.00;0.00;;;;;;;15.60;100.00;100817.25;4994756;28;20033;-76
2023/08/22 05:43:29;;;;;;;0.00;0.00;;;;;;;15.65;100.00;100817.19;5012322;28;20029;-75
2023/08/22 05:45:55;;;;;;;0.00;0.00;;;;;;;15.73;100.00;100832.28;5015130;28;20081;-78
2023/08/22 05:48:20;;;;;;;0.00;0.00;;;;;;;15.79;100.00;100826.44;5003993;28;20368;-77
2023/08/22 05:50:46;;;;;;;0.00;0.00;;;;;;;15.84;100.00;100831.94;5010222;28;20023;-76
2023/08/22 05:53:11;;;;;;;0.00;0.00;;;;;;;15.88;100.00;100830.19;4982900;28;20032;-76
2023/08/22 05:55:36;;;;;;;0.00;0.00;;;;;;;15.93;100.00;100820.25;5014603;28;20107;-78
2023/08/22 05:58:02;;;;;;;0.00;0.00;;;;;;;15.99;100.00;100813.53;5016164;28;20037;-76
2023/08/22 06:00:27;;;;;;;0.00;0.00;;;;;;;16.07;100.00;100812.91;4992938;28;20034;-76
2023/08/22 06:02:53;;;;;;;0.00;0.00;;;;;;;16.14;100.00;100816.13;5038438;28;20035;-76
2023/08/22 06:05:18;;;;;;;0.00;0.00;;;;;;;16.18;100.00;100817.19;5001806;28;20383;-75
2023/08/22 06:07:44;;;;;;;0.00;0.00;;;;;;;16.27;100.00;100809.09;5002359;28;20083;-76
2023/08/22 06:10:09;;;;;;;0.00;0.00;;;;;;;16.37;100.00;100819.19;5028528;28;20036;-78
2023/08/22 06:12:34;;;;;;;0.00;0.00;;;;;;;16.48;100.00;100834.47;5017455;28;20033;-75
2023/08/22 06:15:00;;;;;;;0.00;0.00;;;;;;;16.52;100.00;100821.72;5013408;28;20052;-75
2023/08/22 06:17:25;;;;;;;0.00;0.00;;;;;;;16.66;100.00;100821.00;5008592;28;20031;-74
2023/08/22 06:19:52;;;;;;;0.00;0.00;;;;;;;16.72;100.00;100820.63;5022767;28;20410;-74
2023/08/22 06:22:17;;;;;;;0.00;0.00;;;;;;;16.79;100.00;100813.91;5011652;28;20131;-73
2023/08/22 06:24:43;;;;;;;0.00;0.00;;;;;;;16.74;100.00;100806.53;5000383;28;20048;-76
2023/08/22 06:27:08;;;;;;;0.00;0.00;;;;;;;16.88;100.00;100814.91;5018522;28;20075;-75
2023/08/22 06:29:33;;;;;;;0.00;0.00;;;;;;;17.03;100.00;100844.25;5005993;28;20029;-74
2023/08/22 06:32:00;;;;;;;0.00;0.00;;;;;;;16.89;100.00;100806.34;5022395;28;20048;-76
2023/08/22 06:34:30;;;;;;;0.00;0.00;;;;;;;17.00;100.00;100820.00;5009076;28;20094;-74
2023/08/22 06:36:55;;;;;;;0.00;0.00;;;;;;;17.10;100.00;100819.84;5021214;28;20025;-74
2023/08/22 06:39:21;;;;;;;0.00;0.00;;;;;;;17.20;100.00;100821.59;4988039;28;20033;-75
2023/08/22 06:41:56;;;;;;;0.00;0.00;;;;;;;17.24;100.00;100831.78;5010462;28;20025;-75
2023/08/22 06:44:24;;;;;;;0.00;0.00;;;;;;;17.37;99.60;100830.16;5021538;28;20027;-75
2023/08/22 06:47:09;;;;;;;0.00;0.00;;;;;;;17.43;98.94;100817.06;5007299;28;20021;-74
2023/08/22 06:49:37;;;;;;;0.00;0.00;;;;;;;17.54;97.92;100813.03;5035194;28;20072;-72
2023/08/22 06:52:03;;;;;;;0.00;0.00;;;;;;;17.63;96.99;100815.91;5011122;28;20029;-76
2023/08/22 06:54:30;;;;;;;0.00;0.00;;;;;;;17.76;96.28;100815.09;5009277;28;20033;-74
2023/08/22 06:56:56;;;;;;;0.00;0.00;;;;;;;18.08;95.08;100843.06;4986215;28;20036;-73
2023/08/22 06:59:21;;;;;;;0.00;0.00;;;;;;;18.17;94.84;100830.13;5032740;28;20387;-75
2023/08/22 07:01:50;;;;;;;0.00;0.00;;;;;;;18.30;93.77;100822.97;5017005;28;20085;-74
2023/08/22 07:04:15;;;;;;;0.00;0.00;;;;;;;18.54;92.28;100822.72;5021410;28;20037;-74
2023/08/22 07:06:41;;;;;;;0.00;0.00;;;;;;;18.69;91.07;100818.81;5035683;28;20021;-74
2023/08/22 07:09:06;;;;;;;0.00;0.00;;;;;;;19.02;89.80;100833.28;5010752;28;20026;-75
2023/08/22 07:11:41;;;;;;;0.00;0.00;;;;;;;19.13;88.60;100830.31;5003154;28;20029;-75
2023/08/22 07:14:07;;;;;;;0.00;0.00;;;;;;;19.27;87.25;100861.53;5009597;28;20071;-73
2023/08/22 07:16:33;;;;;;;0.00;0.00;;;;;;;19.22;86.15;100858.91;5025538;28;20040;-74
2023/08/22 07:18:58;;;;;;;0.00;0.00;;;;;;;19.24;86.51;100862.16;5035748;28;20025;-73
2023/08/22 07:21:26;;;;;;;0.00;0.00;;;;;;;19.27;85.58;100871.81;5020125;28;20017;-76
2023/08/22 07:23:51;;;;;;;0.00;0.00;;;;;;;19.36;85.45;100867.97;4999976;28;20408;-74
2023/08/22 07:26:23;;;;;;;0.00;0.00;;;;;;;19.57;84.28;100884.13;5027028;28;20025;-74
2023/08/22 07:28:48;;;;;;;0.00;0.00;;;;;;;19.75;83.10;100887.00;5017587;28;20035;-73
2023/08/22 07:31:14;;;;;;;0.00;0.00;;;;;;;20.14;81.67;100893.78;5009269;28;20017;-74
2023/08/22 07:41:11;;;;;;;;;;;;;;;;;;;;;
2023/08/22 08:08:39;;;;;;;0.00;0.00;;;;;;;19.64;78.74;100887.25;4910377;29;20036;-76
2023/08/22 08:11:04;;;;;;;0.00;0.00;;;;;;;19.92;76.48;100887.13;4911587;28;20034;-75
2023/08/22 08:13:30;;;;;;;0.00;0.00;;;;;;;20.25;75.72;100886.78;4933074;28;20074;-74
2023/08/22 08:15:55;;;;;;;0.00;0.00;;;;;;;20.66;72.64;100877.31;5020598;28;20072;-76
2023/08/22 08:18:21;;;;;;;0.00;0.00;;;;;;;20.82;71.09;100886.03;5012979;28;20463;-75
2023/08/22 08:20:46;;;;;;;0.00;0.00;;;;;;;21.06;70.29;100885.53;5011122;28;20037;-75
2023/08/22 08:23:12;;;;;;;0.00;0.00;;;;;;;21.60;67.86;100887.19;5007849;28;20045;-75
2023/08/22 08:25:37;;;;;;;0.00;0.00;;;;;;;22.15;66.28;100896.69;5009130;28;20033;-76
2023/08/22 08:28:07;;;;;;;0.00;0.00;;;;;;;22.63;63.28;100894.72;5023301;28;20028;-76
2023/08/22 08:30:33;;;;;;;0.00;0.00;;;;;;;22.74;61.41;100884.00;5017557;28;20044;-75
2023/08/22 08:32:59;;;;;;;0.00;0.00;;;;;;;22.68;60.41;100891.75;5014919;28;20071;-75
2023/08/22 08:35:24;;;;;;;0.00;0.00;;;;;;;22.59;60.56;100897.38;4991095;28;20049;-75
2023/08/22 08:37:51;;;;;;;0.00;0.00;;;;;;;22.87;59.66;100896.03;5007122;28;20033;-74
2023/08/22 08:40:19;;;;;;;0.00;0.00;;;;;;;23.17;58.22;100897.66;5010776;28;20029;-73
2023/08/22 08:42:45;;;;;;;0.00;0.00;;;;;;;23.51;56.79;100895.72;4998926;28;20029;-75
2023/08/22 08:45:13;;;;;;;0.00;0.00;;;;;;;24.63;54.95;100898.75;5018012;28;20037;-76
2023/08/22 08:47:39;;;;;;;0.00;0.00;;;;;;;25.41;51.50;100907.94;5039971;28;20022;-74
2023/08/22 08:50:09;;;;;;;0.00;0.00;;;;;;;25.77;50.22;100900.53;5018470;28;20471;-75
2023/08/22 08:52:37;;;;;;;0.00;0.00;;;;;;;26.06;48.33;100909.75;5008180;28;20087;-74
2023/08/22 08:55:04;;;;;;;0.00;0.00;;;;;;;25.86;48.68;100909.59;5004889;28;20029;-75
2023/08/22 08:57:31;;;;;;;0.00;0.00;;;;;;;26.57;48.84;100909.00;5027500;28;20025;-74
2023/08/22 09:00:00;;;;;;;0.00;0.00;;;;;;;27.15;46.04;100911.16;5012358;28;20094;-75
2023/08/22 09:02:27;;;;;;;0.00;0.00;;;;;;;26.06;47.82;100906.94;5013094;28;20475;-76
2023/08/22 09:04:52;;;;;;;0.00;0.00;;;;;;;24.96;49.74;100911.78;5007935;28;20033;-74
2023/08/22 09:07:23;;;;;;;0.00;0.00;;;;;;;24.44;52.17;100907.69;5003892;28;20025;-74
2023/08/22 09:09:48;;;;;;;0.00;0.00;;;;;;;24.55;52.87;100920.84;4997016;28;20091;-76
2023/08/22 09:12:14;;;;;;;0.00;0.00;;;;;;;24.77;52.21;100902.00;5037271;28;20029;-76
2023/08/22 09:14:47;;;;;;;0.00;0.00;;;;;;;24.73;51.96;100903.88;5011535;28;20076;-74
2023/08/22 09:17:19;;;;;;;0.00;0.00;;;;;;;24.52;52.18;100904.78;5015646;28;20100;-76
2023/08/22 09:19:47;;;;;;;0.00;0.00;;;;;;;24.41;52.76;100920.38;5020121;28;20143;-75
2023/08/22 09:22:14;;;;;;;0.00;0.00;;;;;;;23.95;53.16;100928.03;5020100;28;20360;-75
2023/08/22 09:24:50;;;;;;;0.00;0.00;;;;;;;23.45;54.81;100922.22;5004463;28;20033;-75
2023/08/22 09:27:15;;;;;;;0.00;0.00;;;;;;;23.43;55.76;100913.34;5037959;28;20021;-74
2023/08/22 09:29:42;;;;;;;0.00;0.00;;;;;;;23.42;55.82;100920.13;5008966;28;20040;-77
2023/08/22 09:32:07;;;;;;;0.00;0.00;;;;;;;23.42;55.75;100922.91;5006830;28;20025;-75
2023/08/22 09:34:34;;;;;;;0.00;0.00;;;;;;;23.46;55.82;100920.22;5017810;28;20079;-76
2023/08/22 09:37:00;;;;;;;0.00;0.00;;;;;;;23.46;56.21;100917.44;4999026;28;20464;-78
2023/08/22 09:39:28;;;;;;;0.00;0.00;;;;;;;23.45;56.23;100925.00;5024677;28;20128;-74
2023/08/22 09:41:58;;;;;;;0.00;0.00;;;;;;;23.31;56.47;100916.09;4992936;28;20029;-76
2023/08/22 09:44:25;;;;;;;0.00;0.00;;;;;;;23.47;57.24;100925.47;5036893;28;20375;-73
2023/08/22 09:46:52;;;;;;;0.00;0.00;;;;;;;23.52;56.86;100916.06;5031397;28;20029;-74
2023/08/22 09:49:19;;;;;;;0.00;0.00;;;;;;;23.78;56.97;100931.75;5005188;28;20037;-73
2023/08/22 09:51:45;;;;;;;0.00;0.00;;;;;;;25.05;55.47;100938.44;5010519;28;20021;-75
2023/08/22 09:54:13;;;;;;;0.00;0.00;;;;;;;25.91;50.95;100942.94;5015746;28;20029;-75
2023/08/22 09:56:39;;;;;;;0.00;0.00;;;;;;;25.68;49.93;100941.91;5021001;28;20029;-74
2023/08/22 09:59:04;;;;;;;0.00;0.00;;;;;;;25.32;50.80;100936.09;5015527;28;20029;-75
2023/08/22 10:01:33;;;;;;;0.00;0.00;;;;;;;24.72;52.05;100936.63;5015484;28;20017;-77
2023/08/22 10:04:00;;;;;;;0.00;0.00;;;;;;;27.34;49.07;100933.66;5024373;28;20024;-76
2023/08/22 10:06:31;;;;;;;0.00;0.00;;;;;;;31.72;39.27;100927.38;5019016;28;20021;-74
2023/08/22 10:08:56;;;;;;;0.00;0.00;;;;;;;35.23;32.34;100933.97;5031305;28;20032;-74
2023/08/22 10:11:25;;;;;;;0.00;0.00;;;;;;;37.48;28.84;100937.66;5036703;28;20406;-73
2023/08/22 10:13:53;;;;;;;0.00;0.00;;;;;;;39.61;25.40;100927.28;5018139;28;20029;-75
2023/08/22 10:16:19;;;;;;;0.00;0.00;;;;;;;39.37;25.72;100919.00;5023891;28;20021;-75
2023/08/22 10:18:45;;;;;;;0.00;0.00;;;;;;;37.18;26.89;100919.53;5015465;28;20467;-75
2023/08/22 10:21:11;;;;;;;0.00;0.00;;;;;;;37.17;26.12;100915.06;5011072;28;20029;-73
2023/08/22 10:23:55;;;;;;;0.00;0.00;;;;;;;38.99;23.51;100925.41;5019529;28;20132;-74
2023/08/22 10:26:21;;;;;;;0.00;0.00;;;;;;;40.24;21.79;100919.16;5021441;28;20063;-74
2023/08/22 10:29:12;;;;;;;0.00;0.00;;;;;;;41.47;20.80;100919.25;5000147;28;20064;-75
2023/08/22 10:32:02;;;;;;;0.00;0.00;;;;;;;42.46;18.96;100922.63;5034876;28;20024;-75
2023/08/22 10:34:34;;;;;;;0.00;0.00;;;;;;;41.88;20.12;100907.00;5014684;28;20121;-75
2023/08/22 10:37:00;;;;;;;0.00;0.00;;;;;;;42.61;19.95;100912.09;5040698;28;20539;-74
2023/08/22 10:39:39;;;;;;;0.00;0.00;;;;;;;43.86;18.32;100898.13;5032410;28;20155;-75
2023/08/22 10:42:06;;;;;;;0.00;0.00;;;;;;;44.68;17.01;100893.09;5015250;28;20029;-75
2023/08/22 10:44:31;;;;;;;0.00;0.00;;;;;;;43.05;18.33;100887.97;5020559;28;20479;-75
2023/08/22 10:47:02;;;;;;;0.00;0.00;;;;;;;40.71;20.14;100880.28;5018455;28;20518;-77
2023/08/22 10:49:32;;;;;;;0.00;0.00;;;;;;;41.73;20.50;100883.78;5008811;28;20087;-74
2023/08/22 10:52:08;;;;;;;0.00;0.00;;;;;;;43.73;16.88;100884.72;5003646;28;20037;-74
2023/08/22 10:55:00;;;;;;;0.00;0.00;;;;;;;43.73;16.35;100896.22;5013541;28;20427;-74
2023/08/22 10:57:26;;;;;;;0.00;0.00;;;;;;;43.45;17.06;100891.91;4986528;28;20555;-75
2023/08/22 11:00:35;;;;;;;0.00;0.00;;;;;;;43.61;16.63;100874.22;5026814;28;20171;-74
2023/08/22 11:03:01;;;;;;;0.00;0.00;;;;;;;44.16;16.41;100878.91;4974766;28;20127;-75
2023/08/22 11:05:30;;;;;;;0.00;0.00;;;;;;;44.86;15.94;100869.06;4990872;28;20459;-77
2023/08/22 11:07:57;;;;;;;0.00;0.00;;;;;;;40.84;18.96;100886.75;5006018;28;20434;-75
2023/08/22 11:10:24;;;;;;;0.00;0.00;;;;;;;41.40;19.00;100873.63;5012945;28;20045;-74
2023/08/22 11:12:54;;;;;;;0.00;0.00;;;;;;;42.47;17.35;100884.00;5019923;28;20028;-75
2023/08/22 11:15:19;;;;;;;0.00;0.00;;;;;;;43.54;17.70;100880.34;5001854;28;20125;-76
2023/08/22 11:17:46;;;;;;;0.00;0.00;;;;;;;44.12;16.23;100869.66;5020398;28;20550;-74
2023/08/22 11:20:17;;;;;;;0.00;0.00;;;;;;;44.68;15.34;100858.50;5013929;28;20806;-74
2023/08/22 11:22:44;;;;;;;0.00;0.00;;;;;;;45.65;14.68;100867.53;5016004;28;20049;-74
2023/08/22 11:25:11;;;;;;;0.00;0.00;;;;;;;45.61;14.88;100852.50;5015275;28;20025;-75
2023/08/22 11:27:38;;;;;;;0.00;0.00;;;;;;;46.08;14.66;100863.41;5017116;28;20080;-74
2023/08/22 11:30:04;;;;;;;0.00;0.00;;;;;;;45.81;13.55;100856.69;5035468;28;20025;-74
2023/08/22 11:32:32;;;;;;;0.00;0.00;;;;;;;45.75;13.76;100852.94;4989591;28;20030;-75
2023/08/22 11:35:01;;;;;;;0.00;0.00;;;;;;;45.58;14.51;100847.72;5014881;28;20036;-75
2023/08/22 11:37:27;;;;;;;0.00;0.00;;;;;;;46.34;13.84;100852.72;5017124;28;20060;-75
2023/08/22 11:39:53;;;;;;;0.00;0.00;;;;;;;47.09;13.97;100865.88;4990604;28;20633;-76
2023/08/22 11:42:24;;;;;;;0.00;0.00;;;;;;;48.25;12.91;100859.78;5005927;28;20025;-75
2023/08/22 11:45:04;;;;;;;0.00;0.00;;;;;;;47.19;12.58;100852.81;5016630;28;20077;-76
2023/08/22 11:47:48;;;;;;;0.00;0.00;;;;;;;46.84;13.41;100850.91;5026322;28;20051;-75
2023/08/22 11:50:35;;;;;;;0.00;0.00;;;;;;;48.45;12.91;100843.53;5016879;28;20021;-77
2023/08/22 11:53:13;;;;;;;0.00;0.00;;;;;;;48.80;11.98;100845.19;4988789;28;20079;-75
2023/08/22 11:55:43;;;;;;;0.00;0.00;;;;;;;48.34;12.20;100832.66;5009686;28;20494;-75
2023/08/22 11:58:12;;;;;;;0.00;0.00;;;;;;;48.12;11.66;100847.88;5006848;28;20044;-76